x

Shumagin Islands - 85nm South Of Sand Point, Ak (46075) Wave Buoy

6:50am - Thu 29th Sep 2016 All times are UTC.

  • Sig Wave height 3.0ft
  • Swell Direction
  • Peak Period 15s
  • Average Period 6s
  • Wind
    11mph, 16mph gusts
  • Sea Temp 53°f
  • Air Temp 53°f
  • Sea Pressure 1036.5mb

More Historic Weather Station data

Upgrade to MSW Pro to gain access to the past 30 days of data for over 8000 Wavebouys and Weather Stations around the globe.

Join Pro

Comparision Forecast

View Surf forecast
   
Thu 09/29 6:50am 3ft 15s 6s 11 16 mph 1036.5mb 53f 53f
5:50am 3ft 10s 6s 4 9 mph 1036.4mb 52f 52f
4:50am 3ft 15s 6s 7
mph
1036.2mb 52f 52f
3:50am 3ft 15s 7s 11 13 mph 1035.9mb 52f 53f
2:50am 3ft 15s 7s 2
mph
1035.7mb 52f 52f
1:50am 3ft 7s 6s 7
mph
1035.5mb 52f 52f
12:50am 3ft 15s 6s 7 9 mph 1035.6mb 52f 52f
Wed 09/28 11:50pm 2.5ft 15s 6s 9
mph
1035.8mb 52f 52f
10:50pm 3ft 15s 6s 9
mph
1035.9mb 52f 52f
9:50pm 3ft 15s 6s 11 13 mph 1035.7mb 52f 52f
8:50pm 3ft 15s 6s 11 13 mph 1035.5mb 52f 52f
7:50pm 3ft 15s 6s 11 13 mph 1035.3mb 52f 52f
6:50pm 3.5ft 16s 6s 4 7 mph 1034.9mb 52f 52f
5:50pm 3.5ft 7s 6s 2 4 mph 1034.3mb 52f 52f
4:50pm 3.5ft 8s 5s 4 7 mph 1034mb 52f 52f
3:50pm 3.5ft 7s 6s 9 11 mph 1033.7mb 52f 52f
2:50pm 3.5ft 8s 6s 11 16 mph 1033.3mb 52f 52f
1:50pm 4ft 8s 6s 11 13 mph 1033.2mb 52f 52f
12:50pm 4ft 8s 6s 13 16 mph 1033mb 52f 52f
11:50am 3.5ft 7s 6s 7 9 mph 1032.8mb 52f 53f
10:50am 4ft 8s 6s 4 7 mph 1032.7mb 52f 53f
9:50am 4ft 15s 6s 7 9 mph 1032.4mb 52f 52f
8:50am 4ft 8s 6s 11 16 mph 1031.9mb 52f 52f
7:50am 4.5ft 8s 6s 13 16 mph 1031.5mb 52f 52f
6:50am 4.5ft 7s 6s 11 16 mph 1031.1mb 52f 53f
5:50am 4.5ft 8s 6s 11 16 mph 1030.7mb 52f 53f
4:50am 4.5ft 8s 7s 11 16 mph 1030.1mb 52f 53f
3:50am 5ft 8s 6s 7
mph
1029.7mb 52f 52f
2:50am 5.5ft 9s 6s 11
mph
1029.2mb 52f 53f
1:50am 5.5ft 8s 6s 11
mph
1028.7mb 53f 53f
12:50am 6ft 8s 6s 11 13 mph 1028.1mb 53f 53f
Tue 09/27 11:50pm 6ft 8s 7s 11 13 mph 1028mb 53f 52f
10:50pm 5ft 9s 6s 9 11 mph 1027.7mb 53f 52f
9:50pm 5ft 8s 6s 7 9 mph 1027.2mb 53f 52f
8:50pm 6ft 9s 7s 9
mph
1026.9mb 52f 52f
7:50pm 6ft 9s 6s 11 13 mph 1026.2mb 52f 52f
6:50pm 7ft 9s 7s 13 18 mph 1025.4mb 52f 52f
5:50pm 7.5ft 9s 7s 11 13 mph 1024.8mb 52f 52f
4:50pm 7ft 9s 7s 11 13 mph 1024mb 52f 52f
3:50pm 8.5ft 9s 7s 9 13 mph 1023.1mb 52f 52f
2:50pm 10ft 10s 7s 13 16 mph 1022mb 52f 52f
1:50pm 9ft 9s 7s 13 18 mph 1021.1mb 52f 52f
12:50pm 9.5ft 10s 7s 13 18 mph 1020.5mb 52f 53f
11:50am 10ft 10s 7s 16 18 mph 1019.6mb 52f 53f
10:50am 10ft 9s 7s 16 20 mph 1018.5mb 52f 53f
9:50am 9ft 9s 7s 16 20 mph 1017.6mb 52f 53f
8:50am 9ft 10s 7s 18 20 mph 1016.5mb 52f 53f
7:50am 9ft 10s 7s 16 20 mph 1015.8mb 52f 53f
6:50am 10ft 10s 8s 20 25 mph 1014.8mb 52f 53f
5:50am 9ft 10s 7s 20 25 mph 1013.8mb 52f 52f
4:50am 9.5ft 9s 7s 20 25 mph 1012.7mb 52f 52f
3:50am 10.5ft 10s 7s 22 27 mph 1011.8mb 52f 52f
2:50am 10ft 9s 7s 18 22 mph 1011.3mb 52f 52f
1:50am 11ft 10s 7s 22 27 mph 1010.7mb 52f 52f
12:50am 11ft 10s 7s 25 29 mph 1010.6mb 52f 51f
Mon 09/26 11:50pm 11ft 10s 7s 25 31 mph 1010.3mb 51f 51f
10:50pm 10ft 10s 7s 27 34 mph 1010.5mb 52f 50f
9:50pm 10.5ft 9s 7s 25 29 mph 1010.6mb 52f 52f
8:50pm 10ft 9s 7s 25 29 mph 1010.5mb 53f 52f
7:50pm 10.5ft 8s 7s 20 27 mph 1010.4mb 53f 52f
6:50pm 9ft 9s 7s 22 27 mph 1009.9mb 53f 52f
5:50pm 9ft 8s 7s 25 27 mph 1009.5mb 53f 52f
4:50pm 8ft 8s 6s 25 29 mph 1009.3mb 54f 52f
3:50pm 8ft 7s 6s 20 29 mph 1009.6mb 54f 50f
2:50pm 7ft 7s 6s 27 36 mph 1010.2mb 53f 51f
1:50pm 6ft 6s 6s 25 29 mph 1011.4mb 54f 51f
12:50pm 6ft 6s 6s 22 27 mph 1012.5mb 53f 51f
11:50am 5ft 6s 5s 20 25 mph 1013.9mb 53f 52f
10:50am 4.5ft 16s 6s 18 22 mph 1014.8mb 53f 52f
9:50am 4.5ft 16s 5s 13 18 mph 1016mb 53f 50f
8:50am 4.5ft 16s 5s 16 20 mph 1016.4mb 54f 51f
7:50am 4.5ft 16s 6s 18 22 mph 1017mb 54f 51f
6:50am 4.5ft 17s 6s 13 18 mph 1017.7mb 54f 51f
5:50am 4ft 17s 6s 13 16 mph 1018.2mb 54f 51f
4:50am 4.5ft 8s 6s 18 20 mph 1018.3mb 54f 51f
3:50am 4.5ft 17s 6s 16 18 mph 1018.6mb 54f 51f
2:50am 4ft 16s 6s 16 20 mph 1018.7mb 54f 51f
1:50am 4.5ft 17s 6s 16 20 mph 1019.1mb 54f 51f
12:50am 4ft 17s 6s 16 18 mph 1019.4mb 54f 51f
Sun 09/25 11:50pm 4ft 16s 6s 13 16 mph 1019.8mb 54f 50f
10:50pm 4ft 17s 6s 11 16 mph 1020.2mb 54f 50f
9:50pm 4.5ft 9s 6s 11 13 mph 1020.4mb 54f 50f
8:50pm 4.5ft 9s 6s 9 13 mph 1020.3mb 53f 50f
7:50pm 4.5ft 6s 6s 9 13 mph 1019.9mb 53f 50f
6:50pm 4.5ft 16s 6s 13 18 mph 1019.7mb 53f 49f
5:50pm 4.5ft 8s 6s 11 13 mph 1019.2mb 53f 50f
4:50pm 4.5ft 16s 6s 13 16 mph 1018.9mb 53f 50f
3:50pm 4.5ft 16s 6s 13 18 mph 1018.6mb 53f 50f
2:50pm 5ft 17s 6s 13 18 mph 1018.4mb 53f 50f
1:50pm 5ft 7s 6s 11 13 mph 1018.2mb 53f 50f
12:50pm 5ft 7s 6s 13 18 mph 1018mb 53f 50f
11:50am 5ft 7s 6s 18 20 mph 1017.8mb 53f 50f
10:50am 5ft 8s 6s 16 20 mph 1017.4mb 53f 50f
9:50am 5ft 8s 6s 13 16 mph 1017.3mb 53f 50f
8:50am 4.5ft 8s 6s 13 18 mph 1016.9mb 53f 51f
7:50am 4.5ft 17s 6s 16 18 mph 1016.4mb 53f 51f